sensor_id;sensor_type;location;lat;lon;timestamp;temperature;humidity
7307;DHT22;3694;48.732;9.248;2023-04-15T00:00:45;2.30;99.90
7307;DHT22;3694;48.732;9.248;2023-04-15T00:03:10;2.20;99.90
7307;DHT22;3694;48.732;9.248;2023-04-15T00:05:36;2.20;99.90
7307;DHT22;3694;48.732;9.248;2023-04-15T00:08:02;2.30;99.90
7307;DHT22;3694;48.732;9.248;2023-04-15T00:10:27;2.30;99.90
7307;DHT22;3694;48.732;9.248;2023-04-15T00:12:53;2.70;99.90
7307;DHT22;3694;48.732;9.248;2023-04-15T00:15:18;2.40;99.90
7307;DHT22;3694;48.732;9.248;2023-04-15T00:17:44;2.50;99.90
7307;DHT22;3694;48.732;9.248;2023-04-15T00:20:10;2.50;99.90
7307;DHT22;3694;48.732;9.248;2023-04-15T00:22:36;2.30;99.90
7307;DHT22;3694;48.732;9.248;2023-04-15T00:25:01;2.20;99.90
7307;DHT22;3694;48.732;9.248;2023-04-15T00:27:27;2.30;99.90
7307;DHT22;3694;48.732;9.248;2023-04-15T00:29:54;2.30;99.90
7307;DHT22;3694;48.732;9.248;2023-04-15T00:32:19;2.40;99.90
7307;DHT22;3694;48.732;9.248;2023-04-15T00:34:45;2.40;99.90
7307;DHT22;3694;48.732;9.248;2023-04-15T00:37:10;2.40;99.90
7307;DHT22;3694;48.732;9.248;2023-04-15T00:39:36;2.40;99.90
7307;DHT22;3694;48.732;9.248;2023-04-15T00:42:03;2.40;99.90
7307;DHT22;3694;48.732;9.248;2023-04-15T00:44:30;2.30;99.90
7307;DHT22;3694;48.732;9.248;2023-04-15T00:46:56;2.10;99.90
7307;DHT22;3694;48.732;9.248;2023-04-15T00:49:22;2.20;99.90
7307;DHT22;3694;48.732;9.248;2023-04-15T00:51:48;1.80;99.90
7307;DHT22;3694;48.732;9.248;2023-04-15T00:54:14;1.80;99.90
7307;DHT22;3694;48.732;9.248;2023-04-15T00:56:41;1.70;99.90
7307;DHT22;3694;48.732;9.248;2023-04-15T00:59:07;1.80;99.90
7307;DHT22;3694;48.732;9.248;2023-04-15T01:01:34;1.80;99.90
7307;DHT22;3694;48.732;9.248;2023-04-15T01:04:01;1.70;99.90
7307;DHT22;3694;48.732;9.248;2023-04-15T01:06:27;1.80;99.90
7307;DHT22;3694;48.732;9.248;2023-04-15T01:08:54;1.90;99.90
7307;DHT22;3694;48.732;9.248;2023-04-15T01:11:20;2.10;99.90
7307;DHT22;3694;48.732;9.248;2023-04-15T01:13:46;2.10;99.90
7307;DHT22;3694;48.732;9.248;2023-04-15T01:16:13;2.10;99.90
7307;DHT22;3694;48.732;9.248;2023-04-15T01:18:39;2.00;99.90
7307;DHT22;3694;48.732;9.248;2023-04-15T01:21:05;1.90;99.90
7307;DHT22;3694;48.732;9.248;2023-04-15T01:23:32;1.90;99.90
7307;DHT22;3694;48.732;9.248;2023-04-15T01:25:58;1.90;99.90
7307;DHT22;3694;48.732;9.248;2023-04-15T01:28:24;1.90;99.90
7307;DHT22;3694;48.732;9.248;2023-04-15T01:30:50;2.00;99.90
7307;DHT22;3694;48.732;9.248;2023-04-15T01:33:29;2.00;99.90
7307;DHT22;3694;48.732;9.248;2023-04-15T01:35:55;2.00;99.90
7307;DHT22;3694;48.732;9.248;2023-04-15T01:38:21;1.90;99.90
7307;DHT22;3694;48.732;9.248;2023-04-15T01:40:47;1.70;99.90
7307;DHT22;3694;48.732;9.248;2023-04-15T01:43:12;1.70;99.90
7307;DHT22;3694;48.732;9.248;2023-04-15T01:45:38;1.60;99.90
7307;DHT22;3694;48.732;9.248;2023-04-15T01:48:03;1.60;99.90
7307;DHT22;3694;48.732;9.248;2023-04-15T01:50:29;1.30;99.90
7307;DHT22;3694;48.732;9.248;2023-04-15T01:52:54;1.10;99.90
7307;DHT22;3694;48.732;9.248;2023-04-15T01:55:20;1.00;99.90
7307;DHT22;3694;48.732;9.248;2023-04-15T01:57:45;1.00;99.90
7307;DHT22;3694;48.732;9.248;2023-04-15T02:00:11;1.10;99.90
7307;DHT22;3694;48.732;9.248;2023-04-15T02:02:37;1.20;99.90
7307;DHT22;3694;48.732;9.248;2023-04-15T02:05:03;1.20;99.90
7307;DHT22;3694;48.732;9.248;2023-04-15T02:07:29;1.10;99.90
7307;DHT22;3694;48.732;9.248;2023-04-15T02:09:56;1.00;99.90
7307;DHT22;3694;48.732;9.248;2023-04-15T02:12:22;0.90;99.90
7307;DHT22;3694;48.732;9.248;2023-04-15T02:14:47;1.10;99.90
7307;DHT22;3694;48.732;9.248;2023-04-15T02:17:13;1.10;99.90
7307;DHT22;3694;48.732;9.248;2023-04-15T02:19:38;1.10;99.90
7307;DHT22;3694;48.732;9.248;2023-04-15T02:22:04;1.20;99.90
7307;DHT22;3694;48.732;9.248;2023-04-15T02:24:32;1.20;99.90
7307;DHT22;3694;48.732;9.248;2023-04-15T02:26:57;1.30;99.90
7307;DHT22;3694;48.732;9.248;2023-04-15T02:29:23;1.40;99.90
7307;DHT22;3694;48.732;9.248;2023-04-15T02:31:49;1.50;99.90
7307;DHT22;3694;48.732;9.248;2023-04-15T02:34:14;1.50;99.90
7307;DHT22;3694;48.732;9.248;2023-04-15T02:36:40;1.50;99.90
7307;DHT22;3694;48.732;9.248;2023-04-15T02:39:05;1.50;99.90
7307;DHT22;3694;48.732;9.248;2023-04-15T02:41:31;1.50;99.90
7307;DHT22;3694;48.732;9.248;2023-04-15T02:43:57;1.40;99.90
7307;DHT22;3694;48.732;9.248;2023-04-15T02:46:22;1.30;99.90
7307;DHT22;3694;48.732;9.248;2023-04-15T02:48:48;1.10;99.90
7307;DHT22;3694;48.732;9.248;2023-04-15T02:51:15;1.10;99.90
7307;DHT22;3694;48.732;9.248;2023-04-15T02:53:41;1.20;99.90
7307;DHT22;3694;48.732;9.248;2023-04-15T02:56:07;1.30;99.90
7307;DHT22;3694;48.732;9.248;2023-04-15T02:58:34;1.40;99.90
7307;DHT22;3694;48.732;9.248;2023-04-15T03:01:00;1.60;99.90
7307;DHT22;3694;48.732;9.248;2023-04-15T03:03:25;1.70;99.90
7307;DHT22;3694;48.732;9.248;2023-04-15T03:05:52;1.70;99.90
7307;DHT22;3694;48.732;9.248;2023-04-15T03:08:18;1.70;99.90
7307;DHT22;3694;48.732;9.248;2023-04-15T03:10:45;1.70;99.90
7307;DHT22;3694;48.732;9.248;2023-04-15T03:13:11;1.80;99.90
7307;DHT22;3694;48.732;9.248;2023-04-15T03:15:37;1.80;99.90
7307;DHT22;3694;48.732;9.248;2023-04-15T03:18:02;1.80;99.90
7307;DHT22;3694;48.732;9.248;2023-04-15T03:20:28;1.70;99.90
7307;DHT22;3694;48.732;9.248;2023-04-15T03:22:53;1.60;99.90
7307;DHT22;3694;48.732;9.248;2023-04-15T03:25:19;1.40;99.90
7307;DHT22;3694;48.732;9.248;2023-04-15T03:27:44;1.30;99.90
7307;DHT22;3694;48.732;9.248;2023-04-15T03:30:11;1.30;99.90
7307;DHT22;3694;48.732;9.248;2023-04-15T03:32:37;1.20;99.90
7307;DHT22;3694;48.732;9.248;2023-04-15T03:35:02;1.30;99.90
7307;DHT22;3694;48.732;9.248;2023-04-15T03:37:28;1.30;99.90
7307;DHT22;3694;48.732;9.248;2023-04-15T03:39:53;1.30;99.90
7307;DHT22;3694;48.732;9.248;2023-04-15T03:42:19;1.40;99.90
7307;DHT22;3694;48.732;9.248;2023-04-15T03:44:44;1.40;99.90
7307;DHT22;3694;48.732;9.248;2023-04-15T03:47:10;1.50;99.90
7307;DHT22;3694;48.732;9.248;2023-04-15T03:49:35;1.50;99.90
7307;DHT22;3694;48.732;9.248;2023-04-15T03:52:01;1.50;99.90
7307;DHT22;3694;48.732;9.248;2023-04-15T03:54:27;1.50;99.90
7307;DHT22;3694;48.732;9.248;2023-04-15T03:56:52;1.30;99.90
7307;DHT22;3694;48.732;9.248;2023-04-15T03:59:18;1.30;99.90
7307;DHT22;3694;48.732;9.248;2023-04-15T04:01:44;1.30;99.90
7307;DHT22;3694;48.732;9.248;2023-04-15T04:04:09;1.20;99.90
7307;DHT22;3694;48.732;9.248;2023-04-15T04:06:35;1.00;99.90
7307;DHT22;3694;48.732;9.248;2023-04-15T04:09:00;0.80;99.90
7307;DHT22;3694;48.732;9.248;2023-04-15T04:11:26;0.80;99.90
7307;DHT22;3694;48.732;9.248;2023-04-15T04:13:52;0.70;99.90
7307;DHT22;3694;48.732;9.248;2023-04-15T04:16:18;0.70;99.90
7307;DHT22;3694;48.732;9.248;2023-04-15T04:18:44;0.60;99.90
7307;DHT22;3694;48.732;9.248;2023-04-15T04:21:09;0.50;99.90
7307;DHT22;3694;48.732;9.248;2023-04-15T04:23:35;0.30;99.90
7307;DHT22;3694;48.732;9.248;2023-04-15T04:26:00;0.30;99.90
7307;DHT22;3694;48.732;9.248;2023-04-15T04:28:26;0.30;99.90
7307;DHT22;3694;48.732;9.248;2023-04-15T04:30:52;0.20;99.90
7307;DHT22;3694;48.732;9.248;2023-04-15T04:33:18;0.30;99.90
7307;DHT22;3694;48.732;9.248;2023-04-15T04:35:43;0.40;99.90
7307;DHT22;3694;48.732;9.248;2023-04-15T04:38:09;0.40;99.90
7307;DHT22;3694;48.732;9.248;2023-04-15T04:40:35;0.30;99.90
7307;DHT22;3694;48.732;9.248;2023-04-15T04:43:00;0.40;99.90
7307;DHT22;3694;48.732;9.248;2023-04-15T04:45:26;0.50;99.90
7307;DHT22;3694;48.732;9.248;2023-04-15T04:47:51;0.50;99.90
7307;DHT22;3694;48.732;9.248;2023-04-15T04:50:17;0.50;99.90
7307;DHT22;3694;48.732;9.248;2023-04-15T04:52:42;0.60;99.90
7307;DHT22;3694;48.732;9.248;2023-04-15T04:55:08;0.50;99.90
7307;DHT22;3694;48.732;9.248;2023-04-15T04:57:34;0.50;99.90
7307;DHT22;3694;48.732;9.248;2023-04-15T05:00:05;0.40;99.90
7307;DHT22;3694;48.732;9.248;2023-04-15T05:02:30;0.40;99.90
7307;DHT22;3694;48.732;9.248;2023-04-15T05:04:56;0.40;99.90
7307;DHT22;3694;48.732;9.248;2023-04-15T05:07:22;0.50;99.90
7307;DHT22;3694;48.732;9.248;2023-04-15T05:09:48;0.70;99.90
7307;DHT22;3694;48.732;9.248;2023-04-15T05:12:13;0.30;99.90
7307;DHT22;3694;48.732;9.248;2023-04-15T05:14:42;0.30;99.90
7307;DHT22;3694;48.732;9.248;2023-04-15T05:17:08;0.30;99.90
7307;DHT22;3694;48.732;9.248;2023-04-15T05:19:34;0.30;99.90
7307;DHT22;3694;48.732;9.248;2023-04-15T05:22:01;0.40;99.90
7307;DHT22;3694;48.732;9.248;2023-04-15T05:24:27;0.50;99.90
7307;DHT22;3694;48.732;9.248;2023-04-15T05:26:53;0.60;99.90
7307;DHT22;3694;48.732;9.248;2023-04-15T05:29:18;0.80;99.90
7307;DHT22;3694;48.732;9.248;2023-04-15T05:31:44;0.90;99.90
7307;DHT22;3694;48.732;9.248;2023-04-15T05:34:09;1.00;99.90
7307;DHT22;3694;48.732;9.248;2023-04-15T05:36:36;1.20;99.90
7307;DHT22;3694;48.732;9.248;2023-04-15T05:39:02;1.30;99.90
7307;DHT22;3694;48.732;9.248;2023-04-15T05:41:28;1.50;99.90
7307;DHT22;3694;48.732;9.248;2023-04-15T05:43:54;1.60;99.90
7307;DHT22;3694;48.732;9.248;2023-04-15T05:46:20;1.70;99.90
7307;DHT22;3694;48.732;9.248;2023-04-15T05:48:45;1.80;99.90
7307;DHT22;3694;48.732;9.248;2023-04-15T05:51:11;2.00;99.90
7307;DHT22;3694;48.732;9.248;2023-04-15T05:53:37;2.20;99.90
7307;DHT22;3694;48.732;9.248;2023-04-15T05:56:02;2.40;99.90
7307;DHT22;3694;48.732;9.248;2023-04-15T05:58:28;2.60;99.90
7307;DHT22;3694;48.732;9.248;2023-04-15T06:00:53;2.90;99.90
7307;DHT22;3694;48.732;9.248;2023-04-15T06:03:19;3.20;99.90
7307;DHT22;3694;48.732;9.248;2023-04-15T06:05:44;3.60;99.90
7307;DHT22;3694;48.732;9.248;2023-04-15T06:08:10;3.90;99.90
7307;DHT22;3694;48.732;9.248;2023-04-15T06:10:36;4.30;99.90
7307;DHT22;3694;48.732;9.248;2023-04-15T06:13:02;4.70;99.90
7307;DHT22;3694;48.732;9.248;2023-04-15T06:15:28;5.50;99.90
7307;DHT22;3694;48.732;9.248;2023-04-15T06:17:54;6.40;99.90
7307;DHT22;3694;48.732;9.248;2023-04-15T06:20:20;7.50;98.20
7307;DHT22;3694;48.732;9.248;2023-04-15T06:22:46;8.60;96.30
7307;DHT22;3694;48.732;9.248;2023-04-15T06:25:11;9.50;93.70
7307;DHT22;3694;48.732;9.248;2023-04-15T06:27:37;10.70;92.00
7307;DHT22;3694;48.732;9.248;2023-04-15T06:30:03;11.40;90.30
7307;DHT22;3694;48.732;9.248;2023-04-15T06:32:29;11.50;88.60
7307;DHT22;3694;48.732;9.248;2023-04-15T06:34:55;11.30;87.00
7307;DHT22;3694;48.732;9.248;2023-04-15T06:37:21;11.70;85.50
7307;DHT22;3694;48.732;9.248;2023-04-15T06:39:46;11.60;84.90
7307;DHT22;3694;48.732;9.248;2023-04-15T06:42:12;10.50;85.00
7307;DHT22;3694;48.732;9.248;2023-04-15T06:44:38;9.70;85.60
7307;DHT22;3694;48.732;9.248;2023-04-15T06:47:04;9.50;90.10
7307;DHT22;3694;48.732;9.248;2023-04-15T06:49:29;9.40;90.50
7307;DHT22;3694;48.732;9.248;2023-04-15T06:51:55;9.30;89.50
7307;DHT22;3694;48.732;9.248;2023-04-15T06:54:20;9.30;90.40
7307;DHT22;3694;48.732;9.248;2023-04-15T06:56:46;9.10;89.10
7307;DHT22;3694;48.732;9.248;2023-04-15T06:59:12;9.20;90.40
7307;DHT22;3694;48.732;9.248;2023-04-15T07:01:39;9.40;91.50
7307;DHT22;3694;48.732;9.248;2023-04-15T07:04:05;10.00;91.60
7307;DHT22;3694;48.732;9.248;2023-04-15T07:06:31;10.90;90.60
7307;DHT22;3694;48.732;9.248;2023-04-15T07:08:57;11.50;87.40
7307;DHT22;3694;48.732;9.248;2023-04-15T07:11:24;11.60;85.40
7307;DHT22;3694;48.732;9.248;2023-04-15T07:13:50;11.80;84.30
7307;DHT22;3694;48.732;9.248;2023-04-15T07:16:15;11.40;86.10
7307;DHT22;3694;48.732;9.248;2023-04-15T07:18:41;11.50;86.20
7307;DHT22;3694;48.732;9.248;2023-04-15T07:21:06;11.40;85.50
7307;DHT22;3694;48.732;9.248;2023-04-15T07:23:32;11.90;86.60
7307;DHT22;3694;48.732;9.248;2023-04-15T07:25:58;12.10;86.00
7307;DHT22;3694;48.732;9.248;2023-04-15T07:28:23;11.70;83.60
7307;DHT22;3694;48.732;9.248;2023-04-15T07:30:49;11.20;84.00
7307;DHT22;3694;48.732;9.248;2023-04-15T07:33:15;10.70;84.90
7307;DHT22;3694;48.732;9.248;2023-04-15T07:35:41;10.50;86.50
7307;DHT22;3694;48.732;9.248;2023-04-15T07:38:06;10.20;86.30
7307;DHT22;3694;48.732;9.248;2023-04-15T07:40:32;9.90;89.60
7307;DHT22;3694;48.732;9.248;2023-04-15T07:42:58;9.60;88.00
7307;DHT22;3694;48.732;9.248;2023-04-15T07:45:24;9.60;89.90
7307;DHT22;3694;48.732;9.248;2023-04-15T07:47:49;9.80;89.70
7307;DHT22;3694;48.732;9.248;2023-04-15T07:50:17;10.00;88.30
7307;DHT22;3694;48.732;9.248;2023-04-15T07:52:44;10.30;90.10
7307;DHT22;3694;48.732;9.248;2023-04-15T07:55:09;10.50;87.20
7307;DHT22;3694;48.732;9.248;2023-04-15T07:57:35;10.80;88.30
7307;DHT22;3694;48.732;9.248;2023-04-15T08:00:02;10.90;88.70
7307;DHT22;3694;48.732;9.248;2023-04-15T08:02:31;10.90;86.20
7307;DHT22;3694;48.732;9.248;2023-04-15T08:04:56;11.30;88.30
7307;DHT22;3694;48.732;9.248;2023-04-15T08:07:22;11.50;87.70
7307;DHT22;3694;48.732;9.248;2023-04-15T08:09:48;11.90;86.60
7307;DHT22;3694;48.732;9.248;2023-04-15T08:12:14;11.90;85.80
7307;DHT22;3694;48.732;9.248;2023-04-15T08:14:40;11.80;84.30
7307;DHT22;3694;48.732;9.248;2023-04-15T08:17:06;11.50;83.50
7307;DHT22;3694;48.732;9.248;2023-04-15T08:19:31;11.60;85.40
7307;DHT22;3694;48.732;9.248;2023-04-15T08:21:57;11.50;84.80
7307;DHT22;3694;48.732;9.248;2023-04-15T08:24:23;11.40;86.30
7307;DHT22;3694;48.732;9.248;2023-04-15T08:26:50;11.50;85.60
7307;DHT22;3694;48.732;9.248;2023-04-15T08:29:16;11.90;85.90
7307;DHT22;3694;48.732;9.248;2023-04-15T08:31:42;12.00;85.20
7307;DHT22;3694;48.732;9.248;2023-04-15T08:34:08;12.10;89.10
7307;DHT22;3694;48.732;9.248;2023-04-15T08:36:33;12.70;87.00
7307;DHT22;3694;48.732;9.248;2023-04-15T08:38:59;13.50;86.40
7307;DHT22;3694;48.732;9.248;2023-04-15T08:41:28;14.00;84.10
7307;DHT22;3694;48.732;9.248;2023-04-15T08:44:03;14.40;82.50
7307;DHT22;3694;48.732;9.248;2023-04-15T08:46:30;15.30;84.00
7307;DHT22;3694;48.732;9.248;2023-04-15T08:48:57;15.70;80.40
7307;DHT22;3694;48.732;9.248;2023-04-15T08:51:23;16.20;79.60
7307;DHT22;3694;48.732;9.248;2023-04-15T08:53:51;16.10;78.20
7307;DHT22;3694;48.732;9.248;2023-04-15T08:56:17;16.30;77.90
7307;DHT22;3694;48.732;9.248;2023-04-15T08:58:44;16.70;77.90
7307;DHT22;3694;48.732;9.248;2023-04-15T09:01:11;16.60;75.90
7307;DHT22;3694;48.732;9.248;2023-04-15T09:03:38;16.70;74.10
7307;DHT22;3694;48.732;9.248;2023-04-15T09:06:04;17.10;73.40
7307;DHT22;3694;48.732;9.248;2023-04-15T09:08:31;17.10;74.70
7307;DHT22;3694;48.732;9.248;2023-04-15T09:10:56;17.30;72.50
7307;DHT22;3694;48.732;9.248;2023-04-15T09:13:22;17.40;74.00
7307;DHT22;3694;48.732;9.248;2023-04-15T09:15:47;17.20;72.00
7307;DHT22;3694;48.732;9.248;2023-04-15T09:18:26;16.70;72.90
7307;DHT22;3694;48.732;9.248;2023-04-15T09:20:53;16.20;69.20
7307;DHT22;3694;48.732;9.248;2023-04-15T09:23:19;16.20;72.60
7307;DHT22;3694;48.732;9.248;2023-04-15T09:25:44;16.50;73.20
7307;DHT22;3694;48.732;9.248;2023-04-15T09:28:10;16.20;71.00
7307;DHT22;3694;48.732;9.248;2023-04-15T09:30:36;15.80;73.00
7307;DHT22;3694;48.732;9.248;2023-04-15T09:33:03;15.40;71.70
7307;DHT22;3694;48.732;9.248;2023-04-15T09:35:33;15.20;76.10
7307;DHT22;3694;48.732;9.248;2023-04-15T09:38:04;15.20;70.30
7307;DHT22;3694;48.732;9.248;2023-04-15T09:40:35;15.40;72.20
7307;DHT22;3694;48.732;9.248;2023-04-15T09:43:05;15.30;71.50
7307;DHT22;3694;48.732;9.248;2023-04-15T09:45:32;15.00;72.00
7307;DHT22;3694;48.732;9.248;2023-04-15T09:48:13;14.50;71.70
7307;DHT22;3694;48.732;9.248;2023-04-15T09:50:40;14.40;75.80
7307;DHT22;3694;48.732;9.248;2023-04-15T09:53:14;14.80;74.20
7307;DHT22;3694;48.732;9.248;2023-04-15T09:55:49;15.50;69.50
7307;DHT22;3694;48.732;9.248;2023-04-15T09:58:29;15.50;71.80
7307;DHT22;3694;48.732;9.248;2023-04-15T10:00:56;15.00;72.40
7307;DHT22;3694;48.732;9.248;2023-04-15T10:03:24;14.40;71.50
7307;DHT22;3694;48.732;9.248;2023-04-15T10:05:52;14.00;75.60
7307;DHT22;3694;48.732;9.248;2023-04-15T10:08:20;14.20;74.20
7307;DHT22;3694;48.732;9.248;2023-04-15T10:10:47;14.50;74.10
7307;DHT22;3694;48.732;9.248;2023-04-15T10:13:19;14.80;72.00
7307;DHT22;3694;48.732;9.248;2023-04-15T10:15:50;14.50;72.20
7307;DHT22;3694;48.732;9.248;2023-04-15T10:18:19;14.40;73.70
7307;DHT22;3694;48.732;9.248;2023-04-15T10:20:47;14.20;72.70
7307;DHT22;3694;48.732;9.248;2023-04-15T10:23:14;13.80;71.60
7307;DHT22;3694;48.732;9.248;2023-04-15T10:25:39;13.50;71.60
7307;DHT22;3694;48.732;9.248;2023-04-15T10:28:06;13.20;73.50
7307;DHT22;3694;48.732;9.248;2023-04-15T10:30:34;13.30;72.60
7307;DHT22;3694;48.732;9.248;2023-04-15T10:33:01;13.50;73.70
7307;DHT22;3694;48.732;9.248;2023-04-15T10:35:29;13.50;72.40
7307;DHT22;3694;48.732;9.248;2023-04-15T10:37:55;13.80;70.00
7307;DHT22;3694;48.732;9.248;2023-04-15T10:40:27;14.30;70.40
7307;DHT22;3694;48.732;9.248;2023-04-15T10:42:54;15.10;72.90
7307;DHT22;3694;48.732;9.248;2023-04-15T10:45:21;15.50;67.60
7307;DHT22;3694;48.732;9.248;2023-04-15T10:47:54;15.70;72.10
7307;DHT22;3694;48.732;9.248;2023-04-15T10:50:20;15.70;71.40
7307;DHT22;3694;48.732;9.248;2023-04-15T10:52:50;15.00;72.10
7307;DHT22;3694;48.732;9.248;2023-04-15T10:55:21;14.70;70.00
7307;DHT22;3694;48.732;9.248;2023-04-15T10:57:51;15.10;68.50
7307;DHT22;3694;48.732;9.248;2023-04-15T11:00:19;15.40;69.60
7307;DHT22;3694;48.732;9.248;2023-04-15T11:02:59;15.40;72.70
7307;DHT22;3694;48.732;9.248;2023-04-15T11:08:11;14.60;69.30
7307;DHT22;3694;48.732;9.248;2023-04-15T11:13:13;14.60;71.50
7307;DHT22;3694;48.732;9.248;2023-04-15T11:15:43;14.80;69.10
7307;DHT22;3694;48.732;9.248;2023-04-15T11:18:24;15.00;68.50
7307;DHT22;3694;48.732;9.248;2023-04-15T11:20:52;14.90;68.90
7307;DHT22;3694;48.732;9.248;2023-04-15T11:23:34;14.80;70.80
7307;DHT22;3694;48.732;9.248;2023-04-15T11:26:02;14.30;67.90
7307;DHT22;3694;48.732;9.248;2023-04-15T11:28:30;14.20;70.40
7307;DHT22;3694;48.732;9.248;2023-04-15T11:30:57;14.00;69.40
7307;DHT22;3694;48.732;9.248;2023-04-15T11:33:23;14.10;70.30
7307;DHT22;3694;48.732;9.248;2023-04-15T11:35:52;14.50;72.10
7307;DHT22;3694;48.732;9.248;2023-04-15T11:38:19;14.90;72.00
7307;DHT22;3694;48.732;9.248;2023-04-15T11:40:45;15.20;68.20
7307;DHT22;3694;48.732;9.248;2023-04-15T11:43:15;15.60;66.80
7307;DHT22;3694;48.732;9.248;2023-04-15T11:45:54;15.80;69.40
7307;DHT22;3694;48.732;9.248;2023-04-15T11:48:27;15.60;67.30
7307;DHT22;3694;48.732;9.248;2023-04-15T11:51:02;15.70;70.90
7307;DHT22;3694;48.732;9.248;2023-04-15T11:56:05;15.10;64.00
7307;DHT22;3694;48.732;9.248;2023-04-15T11:58:33;14.90;67.60
7307;DHT22;3694;48.732;9.248;2023-04-15T12:01:00;14.80;66.40
7307;DHT22;3694;48.732;9.248;2023-04-15T12:03:40;14.40;66.10
7307;DHT22;3694;48.732;9.248;2023-04-15T12:06:22;13.90;70.40
7307;DHT22;3694;48.732;9.248;2023-04-15T12:08:52;13.60;68.30
7307;DHT22;3694;48.732;9.248;2023-04-15T12:14:38;13.70;72.30
7307;DHT22;3694;48.732;9.248;2023-04-15T12:16:41;14.20;76.20
7307;DHT22;3694;48.732;9.248;2023-04-15T12:19:13;14.50;71.70
7307;DHT22;3694;48.732;9.248;2023-04-15T12:21:41;14.90;72.10
7307;DHT22;3694;48.732;9.248;2023-04-15T12:24:09;15.00;73.20
7307;DHT22;3694;48.732;9.248;2023-04-15T12:27:00;14.90;72.80
7307;DHT22;3694;48.732;9.248;2023-04-15T12:29:28;14.40;72.70
7307;DHT22;3694;48.732;9.248;2023-04-15T12:34:29;13.10;73.20
7307;DHT22;3694;48.732;9.248;2023-04-15T12:36:55;12.30;70.90
7307;DHT22;3694;48.732;9.248;2023-04-15T12:39:27;11.90;73.10
7307;DHT22;3694;48.732;9.248;2023-04-15T12:41:53;11.70;74.80
7307;DHT22;3694;48.732;9.248;2023-04-15T12:44:22;11.10;77.00
7307;DHT22;3694;48.732;9.248;2023-04-15T12:46:48;10.10;86.20
7307;DHT22;3694;48.732;9.248;2023-04-15T12:49:14;9.00;96.20
7307;DHT22;3694;48.732;9.248;2023-04-15T12:51:40;8.30;99.90
7307;DHT22;3694;48.732;9.248;2023-04-15T12:54:06;7.90;99.90
7307;DHT22;3694;48.732;9.248;2023-04-15T12:56:32;7.80;99.90
7307;DHT22;3694;48.732;9.248;2023-04-15T12:58:57;7.70;99.90
7307;DHT22;3694;48.732;9.248;2023-04-15T13:01:23;7.70;99.90
7307;DHT22;3694;48.732;9.248;2023-04-15T13:03:49;7.70;99.90
7307;DHT22;3694;48.732;9.248;2023-04-15T13:06:15;7.70;99.90
7307;DHT22;3694;48.732;9.248;2023-04-15T13:08:41;7.80;99.90
7307;DHT22;3694;48.732;9.248;2023-04-15T13:11:06;8.00;99.90
7307;DHT22;3694;48.732;9.248;2023-04-15T13:13:32;8.20;99.90
7307;DHT22;3694;48.732;9.248;2023-04-15T13:15:58;8.40;99.90
7307;DHT22;3694;48.732;9.248;2023-04-15T13:18:23;8.60;99.90
7307;DHT22;3694;48.732;9.248;2023-04-15T13:20:50;8.90;99.90
7307;DHT22;3694;48.732;9.248;2023-04-15T13:23:15;9.10;99.90
7307;DHT22;3694;48.732;9.248;2023-04-15T13:25:41;9.30;99.90
7307;DHT22;3694;48.732;9.248;2023-04-15T13:28:08;9.50;99.90
7307;DHT22;3694;48.732;9.248;2023-04-15T13:30:37;9.60;99.50
7307;DHT22;3694;48.732;9.248;2023-04-15T13:33:03;9.80;99.40
7307;DHT22;3694;48.732;9.248;2023-04-15T13:35:29;10.00;98.70
7307;DHT22;3694;48.732;9.248;2023-04-15T13:37:54;10.20;97.10
7307;DHT22;3694;48.732;9.248;2023-04-15T13:40:20;10.60;96.00
7307;DHT22;3694;48.732;9.248;2023-04-15T13:42:46;10.80;94.70
7307;DHT22;3694;48.732;9.248;2023-04-15T13:45:11;11.00;95.30
7307;DHT22;3694;48.732;9.248;2023-04-15T13:47:37;11.20;93.30
7307;DHT22;3694;48.732;9.248;2023-04-15T13:50:03;11.50;93.90
7307;DHT22;3694;48.732;9.248;2023-04-15T13:52:30;11.70;94.00
7307;DHT22;3694;48.732;9.248;2023-04-15T13:54:56;11.80;93.00
7307;DHT22;3694;48.732;9.248;2023-04-15T13:57:22;11.70;91.90
7307;DHT22;3694;48.732;9.248;2023-04-15T13:59:49;11.50;90.10
7307;DHT22;3694;48.732;9.248;2023-04-15T14:02:14;11.30;89.20
7307;DHT22;3694;48.732;9.248;2023-04-15T14:04:41;11.30;89.50
7307;DHT22;3694;48.732;9.248;2023-04-15T14:07:06;11.20;88.90
7307;DHT22;3694;48.732;9.248;2023-04-15T14:09:32;11.10;89.60
7307;DHT22;3694;48.732;9.248;2023-04-15T14:11:57;11.00;86.80
7307;DHT22;3694;48.732;9.248;2023-04-15T14:14:24;10.90;85.80
7307;DHT22;3694;48.732;9.248;2023-04-15T14:16:50;10.90;86.20
7307;DHT22;3694;48.732;9.248;2023-04-15T14:19:15;11.00;79.30
7307;DHT22;3694;48.732;9.248;2023-04-15T14:21:41;11.10;82.50
7307;DHT22;3694;48.732;9.248;2023-04-15T14:24:07;11.10;81.00
7307;DHT22;3694;48.732;9.248;2023-04-15T14:26:32;11.00;79.10
7307;DHT22;3694;48.732;9.248;2023-04-15T14:28:58;11.10;76.60
7307;DHT22;3694;48.732;9.248;2023-04-15T14:31:24;11.00;76.00
7307;DHT22;3694;48.732;9.248;2023-04-15T14:33:50;11.10;75.30
7307;DHT22;3694;48.732;9.248;2023-04-15T14:36:16;11.20;76.90
7307;DHT22;3694;48.732;9.248;2023-04-15T14:38:41;11.40;75.80
7307;DHT22;3694;48.732;9.248;2023-04-15T14:41:07;11.40;78.20
7307;DHT22;3694;48.732;9.248;2023-04-15T14:43:33;11.40;75.50
7307;DHT22;3694;48.732;9.248;2023-04-15T14:45:59;11.20;77.90
7307;DHT22;3694;48.732;9.248;2023-04-15T14:48:25;11.10;75.70
7307;DHT22;3694;48.732;9.248;2023-04-15T14:50:51;10.80;74.70
7307;DHT22;3694;48.732;9.248;2023-04-15T14:53:17;10.70;75.80
7307;DHT22;3694;48.732;9.248;2023-04-15T14:55:42;10.50;75.00
7307;DHT22;3694;48.732;9.248;2023-04-15T14:58:08;10.40;74.80
7307;DHT22;3694;48.732;9.248;2023-04-15T15:00:34;10.40;76.60
7307;DHT22;3694;48.732;9.248;2023-04-15T15:03:00;10.30;77.90
7307;DHT22;3694;48.732;9.248;2023-04-15T15:05:26;10.20;77.50
7307;DHT22;3694;48.732;9.248;2023-04-15T15:07:52;10.10;76.40
7307;DHT22;3694;48.732;9.248;2023-04-15T15:10:17;10.10;79.00
7307;DHT22;3694;48.732;9.248;2023-04-15T15:12:43;9.90;78.70
7307;DHT22;3694;48.732;9.248;2023-04-15T15:15:08;9.80;80.00
7307;DHT22;3694;48.732;9.248;2023-04-15T15:17:34;9.70;80.30
7307;DHT22;3694;48.732;9.248;2023-04-15T15:20:00;9.60;80.40
7307;DHT22;3694;48.732;9.248;2023-04-15T15:22:27;9.60;80.40
7307;DHT22;3694;48.732;9.248;2023-04-15T15:24:53;9.50;80.80
7307;DHT22;3694;48.732;9.248;2023-04-15T15:27:18;9.50;80.60
7307;DHT22;3694;48.732;9.248;2023-04-15T15:29:44;9.50;82.30
7307;DHT22;3694;48.732;9.248;2023-04-15T15:32:10;9.40;83.00
7307;DHT22;3694;48.732;9.248;2023-04-15T15:34:35;9.40;82.70
7307;DHT22;3694;48.732;9.248;2023-04-15T15:37:01;9.40;82.60
7307;DHT22;3694;48.732;9.248;2023-04-15T15:39:26;9.20;84.70
7307;DHT22;3694;48.732;9.248;2023-04-15T15:41:52;9.10;86.60
7307;DHT22;3694;48.732;9.248;2023-04-15T15:44:17;8.90;86.30
7307;DHT22;3694;48.732;9.248;2023-04-15T15:46:43;8.90;86.90
7307;DHT22;3694;48.732;9.248;2023-04-15T15:49:09;8.90;87.00
7307;DHT22;3694;48.732;9.248;2023-04-15T15:51:35;8.80;87.70
7307;DHT22;3694;48.732;9.248;2023-04-15T15:54:00;8.80;88.70
7307;DHT22;3694;48.732;9.248;2023-04-15T15:56:26;8.80;89.10
7307;DHT22;3694;48.732;9.248;2023-04-15T15:58:51;8.70;89.10
7307;DHT22;3694;48.732;9.248;2023-04-15T16:01:17;8.70;90.00
7307;DHT22;3694;48.732;9.248;2023-04-15T16:03:42;8.70;90.40
7307;DHT22;3694;48.732;9.248;2023-04-15T16:06:08;8.70;90.10
7307;DHT22;3694;48.732;9.248;2023-04-15T16:08:33;8.80;90.60
7307;DHT22;3694;48.732;9.248;2023-04-15T16:10:59;8.80;91.30
7307;DHT22;3694;48.732;9.248;2023-04-15T16:13:25;9.00;92.90
7307;DHT22;3694;48.732;9.248;2023-04-15T16:15:50;9.10;91.80
7307;DHT22;3694;48.732;9.248;2023-04-15T16:18:16;9.10;91.30